createdAt,value
2022-12-07T00:01:40.177Z,1.78
2022-12-07T00:04:43.710Z,1.82
2022-12-07T00:07:45.621Z,1.83
2022-12-07T00:10:47.289Z,1.84
2022-12-07T00:13:52.394Z,1.84
2022-12-07T00:16:54.253Z,1.83
2022-12-07T00:19:57.328Z,1.84
2022-12-07T00:22:58.956Z,1.83
2022-12-07T00:26:04.311Z,1.81
2022-12-07T00:29:07.304Z,1.83
2022-12-07T00:32:09.027Z,1.82
2022-12-07T00:35:12.130Z,1.82
2022-12-07T00:38:13.818Z,1.82
2022-12-07T00:41:16.586Z,1.83
2022-12-07T00:44:20.692Z,1.84
2022-12-07T00:47:22.460Z,1.83
2022-12-07T00:50:25.426Z,1.84
2022-12-07T00:53:27.486Z,1.85
2022-12-07T00:56:30.146Z,1.88
2022-12-07T00:59:31.923Z,1.90
2022-12-07T01:02:33.694Z,1.93
2022-12-07T01:05:36.908Z,1.93
2022-12-07T01:08:38.675Z,1.94
2022-12-07T01:11:40.485Z,1.96
2022-12-07T01:14:42.695Z,1.98
2022-12-07T01:17:44.363Z,2.02
2022-12-07T01:20:57.699Z,2.03
2022-12-07T01:23:59.928Z,2.04
2022-12-07T01:27:01.467Z,2.06
2022-12-07T01:30:04.964Z,2.06
2022-12-07T01:33:06.831Z,2.09
2022-12-07T01:36:14.234Z,2.11
2022-12-07T01:39:15.860Z,2.10
2022-12-07T01:42:17.843Z,2.10
2022-12-07T01:45:43.700Z,2.14
2022-12-07T01:48:45.693Z,2.17
2022-12-07T01:51:50.032Z,2.19
2022-12-07T01:54:55.277Z,2.21
2022-12-07T01:57:57.299Z,2.22
2022-12-07T02:00:59.440Z,2.26
2022-12-07T02:04:01.528Z,2.27
2022-12-07T02:07:05.607Z,2.28
2022-12-07T02:10:14.111Z,2.30
2022-12-07T02:13:17.336Z,2.32
2022-12-07T02:16:27.310Z,2.33
2022-12-07T02:19:45.085Z,2.35
2022-12-07T02:23:04.892Z,2.37
2022-12-07T02:26:36.750Z,2.38
2022-12-07T02:29:42.118Z,2.41
2022-12-07T02:32:47.565Z,2.38
2022-12-07T02:35:52.110Z,2.39
2022-12-07T02:38:57.023Z,2.39
2022-12-07T02:42:02.648Z,2.40
2022-12-07T02:45:07.914Z,2.39
2022-12-07T02:48:11.338Z,2.39
2022-12-07T02:51:13.041Z,2.39
2022-12-07T02:54:15.414Z,2.39
2022-12-07T02:57:26.172Z,2.38
2022-12-07T03:00:32.360Z,2.38
2022-12-07T03:03:36.169Z,2.39
2022-12-07T03:06:40.951Z,2.36
2022-12-07T03:09:46.247Z,2.35
2022-12-07T03:12:55.355Z,2.35
2022-12-07T03:16:02.725Z,2.34
2022-12-07T03:19:07.804Z,2.35
2022-12-07T03:22:11.358Z,2.35
2022-12-07T03:25:15.024Z,2.35
2022-12-07T03:28:19.752Z,2.33
2022-12-07T03:31:24.011Z,2.35
2022-12-07T03:34:27.944Z,2.34
2022-12-07T03:37:32.718Z,2.37
2022-12-07T03:40:36.100Z,2.38
2022-12-07T03:43:38.110Z,2.38
2022-12-07T03:46:44.747Z,2.39
2022-12-07T03:49:50.589Z,2.39
2022-12-07T03:52:54.900Z,2.39
2022-12-07T03:55:57.848Z,2.38
2022-12-07T03:58:59.791Z,2.39
2022-12-07T04:02:05.120Z,2.39
2022-12-07T04:05:07.493Z,2.37
2022-12-07T04:08:09.346Z,2.36
2022-12-07T04:11:11.059Z,2.33
2022-12-07T04:14:21.962Z,2.32
2022-12-07T04:17:25.165Z,2.32
2022-12-07T04:20:26.813Z,2.32
2022-12-07T04:23:28.522Z,2.33
2022-12-07T04:26:30.247Z,2.31
2022-12-07T04:29:31.932Z,2.30
2022-12-07T04:32:35.169Z,2.29
2022-12-07T04:35:36.890Z,2.31
2022-12-07T04:38:38.520Z,2.32
2022-12-07T04:41:40.505Z,2.30
2022-12-07T04:44:43.400Z,2.29
2022-12-07T04:47:46.405Z,2.31
2022-12-07T04:50:48.792Z,2.30
2022-12-07T04:53:52.196Z,2.29
2022-12-07T04:56:53.731Z,2.29
2022-12-07T04:59:55.478Z,2.28
2022-12-07T05:02:58.852Z,2.29
2022-12-07T05:06:00.456Z,2.28
2022-12-07T05:09:02.247Z,2.27
2022-12-07T05:12:03.978Z,2.25
2022-12-07T05:15:05.893Z,2.24
2022-12-07T05:18:10.065Z,2.23
2022-12-07T05:21:12.035Z,2.19
2022-12-07T05:24:15.103Z,2.20
2022-12-07T05:27:16.745Z,2.18
2022-12-07T05:30:18.441Z,2.18
2022-12-07T05:33:21.530Z,2.16
2022-12-07T05:36:23.569Z,2.17
2022-12-07T05:39:25.325Z,2.18
2022-12-07T05:42:27.061Z,2.15
2022-12-07T05:45:29.550Z,2.17
2022-12-07T05:48:32.686Z,2.16
2022-12-07T05:51:34.286Z,2.15
2022-12-07T05:54:35.929Z,2.13
2022-12-07T05:57:37.498Z,2.11
2022-12-07T06:00:39.115Z,2.13
2022-12-07T06:03:42.493Z,2.13
2022-12-07T06:06:44.307Z,2.11
2022-12-07T06:09:45.962Z,2.09
2022-12-07T06:12:47.618Z,2.10
2022-12-07T06:15:49.434Z,2.08
2022-12-07T06:18:52.513Z,2.09
2022-12-07T06:21:54.601Z,2.08
2022-12-07T06:24:56.271Z,2.07
2022-12-07T06:27:58.010Z,2.06
2022-12-07T06:31:00.173Z,2.06
2022-12-07T06:34:05.033Z,2.06
2022-12-07T06:37:06.820Z,2.06
2022-12-07T06:40:09.100Z,2.02
2022-12-07T06:43:10.868Z,2.01
2022-12-07T06:46:12.552Z,2.00
2022-12-07T06:49:16.371Z,1.98
2022-12-07T06:52:18.191Z,1.99
2022-12-07T06:55:19.854Z,1.97
2022-12-07T06:58:21.522Z,1.94
2022-12-07T07:01:23.216Z,1.96
2022-12-07T07:04:26.197Z,1.94
2022-12-07T07:07:27.902Z,1.93
2022-12-07T07:10:29.637Z,1.90
2022-12-07T07:13:31.410Z,1.90
2022-12-07T07:16:33.264Z,1.90
2022-12-07T07:19:37.587Z,1.90
2022-12-07T07:22:41.457Z,1.90
2022-12-07T07:25:43.033Z,1.91
2022-12-07T07:28:44.709Z,1.91
2022-12-07T07:31:46.389Z,1.89
2022-12-07T07:34:50.425Z,1.90
2022-12-07T07:37:52.105Z,1.91
2022-12-07T07:40:53.948Z,1.90
2022-12-07T07:43:55.548Z,1.90
2022-12-07T07:46:57.154Z,1.86
2022-12-07T07:50:00.555Z,1.87
2022-12-07T07:53:04.483Z,1.88
2022-12-07T07:56:06.021Z,1.84
2022-12-07T07:59:07.858Z,1.85
2022-12-07T08:02:10.515Z,1.82
2022-12-07T08:05:15.813Z,1.84
2022-12-07T08:08:17.673Z,1.80
2022-12-07T08:11:19.291Z,1.77
2022-12-07T08:14:20.958Z,1.78
2022-12-07T08:17:22.567Z,1.76
2022-12-07T08:20:25.718Z,1.73
2022-12-07T08:23:33.529Z,1.73
2022-12-07T08:26:40.991Z,1.74
2022-12-07T08:29:42.659Z,1.72
2022-12-07T08:32:45.810Z,1.76
2022-12-07T08:35:48.774Z,1.72
2022-12-07T08:39:29.220Z,1.72
2022-12-07T08:42:12.645Z,1.69
2022-12-07T08:45:15.421Z,1.64
2022-12-07T08:48:22.903Z,1.70
2022-12-07T08:51:25.892Z,1.71
2022-12-07T08:54:29.001Z,1.74
2022-12-07T08:57:30.809Z,1.74
2022-12-07T09:00:32.401Z,1.72
2022-12-07T09:03:34.270Z,1.71
2022-12-07T09:06:37.365Z,1.74
2022-12-07T09:09:39.149Z,1.74
2022-12-07T09:12:41.143Z,1.75
2022-12-07T09:15:42.850Z,1.79
2022-12-07T09:18:44.519Z,1.78
2022-12-07T09:21:47.775Z,1.75
2022-12-07T09:24:49.718Z,1.78
2022-12-07T09:27:56.159Z,1.84
2022-12-07T09:31:22.725Z,1.85
2022-12-07T09:34:20.115Z,1.86
2022-12-07T09:37:23.351Z,1.91
2022-12-07T09:40:25.450Z,1.84
2022-12-07T09:43:27.109Z,1.90
2022-12-07T09:46:30.002Z,1.90
2022-12-07T09:49:33.408Z,1.93
2022-12-07T09:52:39.274Z,1.92
2022-12-07T09:55:42.107Z,1.92
2022-12-07T09:58:44.566Z,1.95
2022-12-07T10:01:47.954Z,1.92
2022-12-07T10:04:49.940Z,1.92
2022-12-07T10:07:53.229Z,1.91
2022-12-07T10:10:56.871Z,1.91
2022-12-07T10:14:11.691Z,1.95
2022-12-07T10:17:29.837Z,1.98
2022-12-07T10:20:31.735Z,2.05
2022-12-07T10:23:35.474Z,2.09
2022-12-07T10:26:37.801Z,2.10
2022-12-07T10:29:39.992Z,2.12
2022-12-07T10:32:41.981Z,2.11
2022-12-07T10:35:44.349Z,2.11
2022-12-07T10:38:48.370Z,2.16
2022-12-07T10:41:57.457Z,2.24
2022-12-07T10:45:08.701Z,2.24
2022-12-07T10:48:13.747Z,2.26
2022-12-07T10:51:21.264Z,2.27
2022-12-07T10:54:30.321Z,2.30
2022-12-07T10:57:40.489Z,2.33
2022-12-07T11:00:45.331Z,2.28
2022-12-07T11:03:52.536Z,2.27
2022-12-07T11:06:59.595Z,2.28
2022-12-07T11:10:09.690Z,2.30
2022-12-07T11:13:27.917Z,2.32
2022-12-07T11:16:39.474Z,2.28
2022-12-07T11:19:52.379Z,2.28
2022-12-07T11:23:00.074Z,2.30
2022-12-07T11:26:07.013Z,2.26
2022-12-07T11:29:18.675Z,2.28
2022-12-07T11:32:23.211Z,2.29
2022-12-07T11:35:28.687Z,2.25
2022-12-07T11:38:37.848Z,2.24
2022-12-07T11:41:43.256Z,2.28
2022-12-07T11:44:50.510Z,2.30
2022-12-07T11:47:55.376Z,2.31
2022-12-07T11:50:59.977Z,2.32
2022-12-07T11:54:03.989Z,2.30
2022-12-07T11:57:16.837Z,2.32
2022-12-07T12:00:20.810Z,2.37
2022-12-07T12:03:31.287Z,2.42
2022-12-07T12:06:36.179Z,2.45
2022-12-07T12:09:50.459Z,2.50
2022-12-07T12:17:14.201Z,2.57
2022-12-07T12:20:23.845Z,2.51
2022-12-07T12:23:28.904Z,2.53
2022-12-07T12:26:32.751Z,2.56
2022-12-07T12:29:36.030Z,2.55
2022-12-07T12:32:40.162Z,2.58
2022-12-07T12:35:43.332Z,2.57
2022-12-07T12:38:51.882Z,2.57
2022-12-07T12:41:55.544Z,2.57
2022-12-07T12:45:14.869Z,2.61
2022-12-07T12:48:34.412Z,2.61
2022-12-07T12:51:41.786Z,2.64
2022-12-07T12:54:59.719Z,2.66
2022-12-07T12:58:20.212Z,2.66
2022-12-07T13:01:45.997Z,2.67
2022-12-07T13:04:53.626Z,2.68
2022-12-07T13:07:59.219Z,2.74
2022-12-07T13:11:17.029Z,2.76
2022-12-07T13:14:37.398Z,2.79
2022-12-07T13:18:03.269Z,2.82
2022-12-07T13:21:27.705Z,2.81
2022-12-07T13:24:32.298Z,2.78
2022-12-07T13:27:34.246Z,2.73
2022-12-07T13:30:43.852Z,2.68
2022-12-07T13:33:46.388Z,2.66
2022-12-07T13:36:48.029Z,2.66
2022-12-07T13:39:52.399Z,2.66
2022-12-07T13:43:00.850Z,2.68
2022-12-07T13:46:02.937Z,2.70
2022-12-07T13:49:16.544Z,2.71
2022-12-07T13:52:20.041Z,2.72
2022-12-07T13:55:23.305Z,2.79
2022-12-07T13:58:25.047Z,2.81
2022-12-07T14:01:27.004Z,2.80
2022-12-07T14:04:36.086Z,2.82
2022-12-07T14:07:49.382Z,2.83
2022-12-07T14:10:57.274Z,2.80
2022-12-07T14:14:00.429Z,2.77
2022-12-07T14:17:03.480Z,2.78
2022-12-07T14:20:26.246Z,2.79
2022-12-07T14:23:28.287Z,2.78
2022-12-07T14:26:31.548Z,2.77
2022-12-07T14:29:34.674Z,2.78
2022-12-07T14:32:37.189Z,2.74
2022-12-07T14:35:41.457Z,2.72
2022-12-07T14:38:43.070Z,2.69
2022-12-07T14:41:52.442Z,2.66
2022-12-07T14:44:54.177Z,2.64
2022-12-07T14:54:39.213Z,2.57
2022-12-07T14:57:42.164Z,2.54
2022-12-07T15:00:44.335Z,2.51
2022-12-07T15:03:46.257Z,2.51
2022-12-07T15:06:56.206Z,2.49
2022-12-07T15:09:57.962Z,2.49
2022-12-07T15:13:21.718Z,2.47
2022-12-07T15:16:23.422Z,2.43
2022-12-07T15:19:29.271Z,2.40
2022-12-07T15:22:38.018Z,2.34
2022-12-07T15:25:41.630Z,2.31
2022-12-07T15:28:44.622Z,2.27
2022-12-07T15:31:55.610Z,2.26
2022-12-07T15:34:58.328Z,2.21
2022-12-07T15:38:03.846Z,2.18
2022-12-07T15:41:05.688Z,2.14
2022-12-07T15:44:31.071Z,2.12
2022-12-07T15:47:37.107Z,2.10
2022-12-07T15:50:51.419Z,2.10
2022-12-07T15:53:53.450Z,2.08
2022-12-07T15:56:55.671Z,2.07
2022-12-07T15:59:58.955Z,2.07
2022-12-07T16:03:00.628Z,2.06
2022-12-07T16:06:02.362Z,2.07
2022-12-07T16:09:04.032Z,2.08
2022-12-07T16:12:05.893Z,2.11
2022-12-07T16:15:09.825Z,2.15
2022-12-07T16:18:11.678Z,2.17
2022-12-07T16:21:14.151Z,2.19
2022-12-07T16:24:16.303Z,2.19
2022-12-07T16:27:18.174Z,2.17
2022-12-07T16:30:21.169Z,2.16
2022-12-07T16:33:22.836Z,2.17
2022-12-07T16:36:55.328Z,2.15
2022-12-07T16:39:47.820Z,2.10
2022-12-07T16:42:49.437Z,2.06
2022-12-07T16:45:52.547Z,2.04
2022-12-07T16:48:54.273Z,2.03
2022-12-07T16:52:18.149Z,2.03
2022-12-07T16:55:20.485Z,2.03
2022-12-07T16:58:22.239Z,2.03
2022-12-07T17:01:25.516Z,2.05
2022-12-07T17:04:27.236Z,2.04
2022-12-07T17:07:29.104Z,2.02
2022-12-07T17:10:30.847Z,2.03
2022-12-07T17:13:51.157Z,2.04
2022-12-07T17:16:54.518Z,2.00
2022-12-07T17:19:56.242Z,1.99
2022-12-07T17:22:58.505Z,1.99
2022-12-07T17:26:04.803Z,1.95
2022-12-07T17:29:08.929Z,1.90
2022-12-07T17:32:13.258Z,1.88
2022-12-07T17:35:15.283Z,1.85
2022-12-07T17:38:16.951Z,1.82
2022-12-07T17:41:39.469Z,1.78
2022-12-07T17:44:41.530Z,1.73
2022-12-07T17:47:44.717Z,1.70
2022-12-07T17:51:04.942Z,1.68
2022-12-07T17:54:06.606Z,1.68
2022-12-07T17:57:09.418Z,1.64
2022-12-07T18:00:12.144Z,1.61
2022-12-07T18:03:15.724Z,1.60
2022-12-07T18:06:17.625Z,1.60
2022-12-07T18:09:19.890Z,1.58
2022-12-07T18:12:21.831Z,1.60
2022-12-07T18:15:23.507Z,1.59
2022-12-07T18:18:26.668Z,1.63
2022-12-07T18:21:29.848Z,1.66
2022-12-07T18:24:36.752Z,1.69
2022-12-07T18:27:38.981Z,1.71
2022-12-07T18:31:13.071Z,1.71
2022-12-07T18:34:13.365Z,1.73
2022-12-07T18:37:15.523Z,1.74
2022-12-07T18:40:17.281Z,1.72
2022-12-07T18:43:19.206Z,1.73
2022-12-07T18:46:21.479Z,1.73
2022-12-07T18:49:24.653Z,1.75
2022-12-07T18:52:26.426Z,1.73
2022-12-07T18:55:29.128Z,1.71
2022-12-07T18:58:31.020Z,1.67
2022-12-07T19:01:32.993Z,1.65
2022-12-07T19:04:36.129Z,1.62
2022-12-07T19:07:37.976Z,1.60
2022-12-07T19:10:39.952Z,1.57
2022-12-07T19:13:41.848Z,1.52
2022-12-07T19:16:43.674Z,1.50
2022-12-07T19:19:47.841Z,1.51
2022-12-07T19:22:49.527Z,1.51
2022-12-07T19:25:51.243Z,1.52
2022-12-07T19:28:52.949Z,1.49
2022-12-07T19:31:54.618Z,1.48
2022-12-07T19:34:57.703Z,1.45
2022-12-07T19:37:59.301Z,1.39
2022-12-07T19:41:04.213Z,1.33
2022-12-07T19:44:07.324Z,1.32
2022-12-07T19:47:09.052Z,1.33
2022-12-07T19:50:11.995Z,1.32
2022-12-07T19:53:13.784Z,1.32
2022-12-07T19:56:15.626Z,1.32
2022-12-07T19:59:18.386Z,1.33
2022-12-07T20:02:20.147Z,1.31
2022-12-07T20:05:24.942Z,1.31
2022-12-07T20:08:26.936Z,1.30
2022-12-07T20:11:47.193Z,1.31
2022-12-07T20:14:48.925Z,1.32
2022-12-07T20:17:50.580Z,1.32
2022-12-07T20:20:57.496Z,1.32
2022-12-07T20:23:59.900Z,1.34
2022-12-07T20:27:01.965Z,1.40
2022-12-07T20:30:03.725Z,1.40
2022-12-07T20:33:05.343Z,1.38
2022-12-07T20:36:09.923Z,1.31
2022-12-07T20:39:11.610Z,1.22
2022-12-07T20:42:32.147Z,1.17
2022-12-07T20:45:33.849Z,1.17
2022-12-07T20:48:35.828Z,1.20
2022-12-07T20:51:39.260Z,1.26
2022-12-07T20:54:40.855Z,1.27
2022-12-07T20:57:42.511Z,1.29
2022-12-07T21:00:44.137Z,1.31
2022-12-07T21:03:46.747Z,1.33
2022-12-07T21:06:49.914Z,1.36
2022-12-07T21:09:51.862Z,1.33
2022-12-07T21:12:55.868Z,1.34
2022-12-07T21:15:59.531Z,1.35
2022-12-07T21:19:02.914Z,1.37
2022-12-07T21:22:06.218Z,1.41
2022-12-07T21:25:08.186Z,1.43
2022-12-07T21:28:09.915Z,1.45
2022-12-07T21:31:13.257Z,1.46
2022-12-07T21:34:15.322Z,1.50
2022-12-07T21:37:18.395Z,1.52
2022-12-07T21:40:20.134Z,1.53
2022-12-07T21:43:21.846Z,1.54
2022-12-07T21:46:29.646Z,1.54
2022-12-07T21:49:36.510Z,1.54
2022-12-07T21:52:39.919Z,1.55
2022-12-07T21:55:41.578Z,1.54
2022-12-07T21:58:43.200Z,1.54
2022-12-07T22:01:47.523Z,1.55
2022-12-07T22:04:49.312Z,1.55
2022-12-07T22:07:52.278Z,1.55
2022-12-07T22:10:53.922Z,1.57
2022-12-07T22:14:14.071Z,1.58
2022-12-07T22:17:15.854Z,1.59
2022-12-07T22:20:18.146Z,1.60
2022-12-07T22:23:21.094Z,1.60
2022-12-07T22:26:24.502Z,1.59
2022-12-07T22:29:26.563Z,1.55
2022-12-07T22:35:52.812Z,1.53
2022-12-07T22:38:56.003Z,1.54
2022-12-07T22:41:57.660Z,1.54
2022-12-07T22:44:59.243Z,1.53
2022-12-07T22:48:00.838Z,1.53
2022-12-07T22:51:02.898Z,1.55
2022-12-07T22:54:06.914Z,1.55
2022-12-07T22:57:08.807Z,1.53
2022-12-07T23:00:11.554Z,1.52
2022-12-07T23:03:15.654Z,1.53
2022-12-07T23:06:18.233Z,1.53
2022-12-07T23:09:21.881Z,1.54
2022-12-07T23:12:42.149Z,1.53
2022-12-07T23:15:43.859Z,1.54
2022-12-07T23:18:45.559Z,1.56
2022-12-07T23:21:47.459Z,1.54
2022-12-07T23:24:50.509Z,1.55
2022-12-07T23:27:52.126Z,1.57
2022-12-07T23:30:53.807Z,1.58
2022-12-07T23:33:58.960Z,1.59
2022-12-07T23:37:00.827Z,1.58
2022-12-07T23:40:04.023Z,1.58
2022-12-07T23:43:05.582Z,1.61
2022-12-07T23:46:13.309Z,1.61
2022-12-07T23:49:15.187Z,1.61
2022-12-07T23:52:16.842Z,1.59
2022-12-07T23:55:20.328Z,1.59
2022-12-07T23:58:22.051Z,1.58
